Northborough, Massachusetts
Current Conditions -  °F | °C
As of 2:54 AM on Saturday 25 Oct 2014 (Local Time) from KORH Reporting Station
Clear Clear  
Wind Chill: 39°   Ceiling: Unl
Heat Index: 45°   Visibility: 10mi
Dew Point: 37°   Wind: 12mph
Humidity: 74%   Direction: 320°NW
Pressure: 29.76"   Gusts: NA
Location:  42.32°N, 71.64°W
Report Text: KORH 250654Z AUTO 32010KT 10SM CLR 07/03 A2976 RMK AO2 SLP081 T00720028 $
Loading
Personal Weather Stations






























Interactive Weather Map New forecast layout! Learn more

10-Day Weather Forecast

Advertisements
Track Severe Weather on mobile